Time;durP1;ratioP1;P1;durP2;ratioP2;P2;SDS_P1;SDS_P2;PMS_P1;PMS_P2;Temp;Humidity;BMP_temperature;BMP_pressure;BME280_temperature;BME280_humidity;BME280_pressure;Samples;Min_cycle;Max_cycle;Signal;HPM_P1;HPM_P2
2021/03/23 00:01:44;;;;;;;5.07;3.35;;;;;;;8.76;52.28;101212.03;5001057;28;20058;-74
2021/03/23 00:04:14;;;;;;;4.28;3.22;;;;;;;8.77;51.88;101210.91;4998528;28;20054;-74
2021/03/23 00:06:42;;;;;;;5.43;3.78;;;;;;;8.77;52.78;101213.69;4999627;28;20054;-74
2021/03/23 00:09:15;;;;;;;4.45;3.53;;;;;;;8.75;52.98;101213.16;4999989;28;20058;-74
2021/03/23 00:11:44;;;;;;;4.95;3.47;;;;;;;8.74;53.14;101219.81;4999771;28;20057;-74
2021/03/23 00:14:19;;;;;;;4.30;3.50;;;;;;;8.75;54.51;101218.69;4999121;28;20065;-74
2021/03/23 00:16:47;;;;;;;4.53;3.33;;;;;;;8.72;55.33;101217.31;5000534;28;20062;-74
2021/03/23 00:19:16;;;;;;;5.82;3.88;;;;;;;8.75;55.65;101221.47;5000612;28;20507;-74
2021/03/23 00:21:48;;;;;;;6.32;3.22;;;;;;;8.73;55.63;101220.94;5000466;28;20058;-74
2021/03/23 00:24:20;;;;;;;7.07;4.70;;;;;;;8.70;55.81;101219.56;5000431;28;20057;-74
2021/03/23 00:26:52;;;;;;;6.18;4.00;;;;;;;8.66;56.53;101217.63;5000681;28;20421;-74
2021/03/23 00:29:21;;;;;;;5.00;3.50;;;;;;;8.49;56.16;101207.69;5000892;28;20515;-74
2021/03/23 00:31:49;;;;;;;6.60;3.90;;;;;;;8.57;56.44;101208.22;5000870;28;20058;-74
2021/03/23 00:34:20;;;;;;;5.80;3.80;;;;;;;8.58;56.19;101215.44;5000379;28;20062;-74
2021/03/23 00:36:53;;;;;;;5.65;3.90;;;;;;;8.60;56.15;101214.03;5000639;28;20062;-74
2021/03/23 00:39:22;;;;;;;5.40;4.05;;;;;;;8.54;56.73;101220.72;5000667;28;20455;-74
2021/03/23 00:41:49;;;;;;;7.03;4.00;;;;;;;8.56;56.69;101217.66;5000704;28;20080;-74
2021/03/23 00:44:19;;;;;;;5.70;3.33;;;;;;;8.57;56.25;101217.41;5000606;28;20046;-73
2021/03/23 00:46:46;;;;;;;7.22;3.25;;;;;;;8.57;56.23;101217.41;4998889;28;20062;-73
2021/03/23 00:49:13;;;;;;;6.25;3.75;;;;;;;8.56;56.71;101217.66;4995593;28;20058;-74
2021/03/23 00:51:41;;;;;;;6.40;3.45;;;;;;;8.49;57.17;101213.25;4978509;28;20065;-74
2021/03/23 00:54:13;;;;;;;5.20;3.28;;;;;;;8.46;57.29;101213.81;4981114;28;20065;-74
2021/03/23 00:56:42;;;;;;;5.70;3.70;;;;;;;8.44;57.10;101212.41;4982212;28;20532;-74
2021/03/23 00:59:10;;;;;;;8.10;3.90;;;;;;;8.44;55.99;101213.28;4988980;28;20058;-74
2021/03/23 01:01:41;;;;;;;5.22;3.35;;;;;;;8.39;57.01;101207.69;5002277;28;20066;-74
2021/03/23 01:04:11;;;;;;;5.15;3.80;;;;;;;8.38;56.58;101214.38;5002310;28;20065;-74
2021/03/23 01:06:41;;;;;;;6.43;3.60;;;;;;;8.36;57.94;101208.25;5003153;28;20057;-74
2021/03/23 01:09:17;;;;;;;5.80;3.75;;;;;;;8.37;57.76;101207.13;5002799;28;20066;-74
2021/03/23 01:11:46;;;;;;;6.68;3.55;;;;;;;8.34;57.97;101202.16;5002432;28;20086;-74
2021/03/23 01:14:16;;;;;;;5.80;3.80;;;;;;;8.33;57.68;101208.81;5002342;28;20053;-74
2021/03/23 01:16:48;;;;;;;4.68;3.30;;;;;;;8.31;58.03;101199.94;5003326;28;20058;-74
2021/03/23 01:19:17;;;;;;;4.22;3.13;;;;;;;8.31;58.45;101205.47;5002565;28;20069;-73
2021/03/23 01:21:46;;;;;;;6.10;3.50;;;;;;;8.31;59.43;101205.47;5002814;28;20066;-74
2021/03/23 01:24:22;;;;;;;7.45;3.40;;;;;;;8.31;58.22;101199.94;5001077;28;20054;-74
2021/03/23 01:26:53;;;;;;;6.78;4.07;;;;;;;8.30;58.23;101203.84;5001636;28;20069;-74
2021/03/23 01:29:24;;;;;;;4.45;3.25;;;;;;;8.22;58.63;101204.41;5000329;28;20445;-74
2021/03/23 01:31:52;;;;;;;5.22;3.30;;;;;;;8.18;59.36;101212.44;5000264;28;20054;-74
2021/03/23 01:34:20;;;;;;;5.10;3.45;;;;;;;8.21;59.61;101214.69;4999771;28;20061;-74
2021/03/23 01:36:49;;;;;;;4.55;2.92;;;;;;;8.20;58.71;101209.41;4999519;28;20059;-74
2021/03/23 01:39:19;;;;;;;5.78;3.30;;;;;;;8.19;58.58;101207.72;5000290;28;20057;-74
2021/03/23 01:41:51;;;;;;;4.40;3.40;;;;;;;8.16;58.10;101209.13;4999908;28;20070;-74
2021/03/23 01:44:19;;;;;;;5.90;3.50;;;;;;;8.18;57.74;101215.22;4998591;28;20061;-74
2021/03/23 01:46:51;;;;;;;5.75;3.28;;;;;;;8.18;57.58;101214.41;4998927;28;20054;-74
2021/03/23 01:49:25;;;;;;;4.38;3.08;;;;;;;8.19;57.18;101207.72;4998789;28;20074;-74
2021/03/23 01:51:57;;;;;;;5.28;3.65;;;;;;;8.14;56.76;101209.38;4980281;28;20073;-74
2021/03/23 01:54:30;;;;;;;6.25;3.35;;;;;;;8.12;56.57;101210.78;4978859;28;20062;-74
2021/03/23 01:56:59;;;;;;;4.68;3.20;;;;;;;8.16;56.43;101205.53;4975189;28;20054;-74
2021/03/23 01:59:27;;;;;;;3.85;2.90;;;;;;;8.16;57.92;101202.75;4974512;28;20065;-74
2021/03/23 02:02:01;;;;;;;5.43;3.25;;;;;;;8.17;58.31;101204.38;4987221;28;20073;-74
2021/03/23 02:04:28;;;;;;;6.20;4.00;;;;;;;8.19;57.02;101213.28;4999175;28;20058;-74
2021/03/23 02:06:55;;;;;;;5.75;3.90;;;;;;;8.18;57.77;101214.41;4994473;28;20054;-74
2021/03/23 02:09:26;;;;;;;6.97;3.53;;;;;;;8.22;58.19;101198.84;4993671;28;20054;-74
2021/03/23 02:11:55;;;;;;;5.40;3.67;;;;;;;8.19;58.28;101207.72;4994467;28;20058;-74
2021/03/23 02:14:28;;;;;;;5.72;3.67;;;;;;;8.17;57.90;101205.25;4993857;28;20073;-74
2021/03/23 02:16:55;;;;;;;8.32;4.35;;;;;;;8.20;57.10;101192.75;4994295;28;20054;-74
2021/03/23 02:19:25;;;;;;;5.85;3.90;;;;;;;8.20;58.09;101201.06;4994346;28;20134;-74
2021/03/23 02:21:52;;;;;;;6.00;3.53;;;;;;;8.16;58.52;101206.34;4994007;28;20054;-73
2021/03/23 02:24:19;;;;;;;6.82;4.68;;;;;;;8.21;58.33;101200.81;4993657;28;20054;-73
2021/03/23 02:26:46;;;;;;;5.78;3.45;;;;;;;8.26;58.03;101195.22;4994162;28;20058;-73
2021/03/23 02:29:18;;;;;;;5.72;4.10;;;;;;;8.24;58.22;101191.06;4994013;28;20062;-73
2021/03/23 02:31:48;;;;;;;5.55;4.10;;;;;;;8.22;58.34;101196.06;4994586;28;20051;-73
2021/03/23 02:34:17;;;;;;;6.85;4.18;;;;;;;8.19;58.67;101191.06;4994298;28;20055;-73
2021/03/23 02:36:48;;;;;;;6.22;4.68;;;;;;;8.16;58.10;101199.97;4994766;28;20055;-73
2021/03/23 02:39:18;;;;;;;8.52;4.95;;;;;;;8.19;58.63;101189.16;4997492;28;20522;-73
2021/03/23 02:41:45;;;;;;;8.10;4.65;;;;;;;8.18;58.40;101189.41;4997965;28;20051;-73
2021/03/23 02:44:12;;;;;;;8.10;5.00;;;;;;;8.18;57.77;101186.66;4998134;28;20059;-73
2021/03/23 02:46:39;;;;;;;6.55;5.22;;;;;;;8.18;58.00;101183.88;4997412;28;20532;-73
2021/03/23 02:49:10;;;;;;;8.85;5.88;;;;;;;8.19;58.25;101180.81;4997916;28;20057;-73
2021/03/23 02:51:38;;;;;;;9.00;5.18;;;;;;;8.21;57.93;101180.53;4981110;28;20059;-73
2021/03/23 02:54:06;;;;;;;9.93;6.10;;;;;;;8.23;57.59;101184.69;4989005;28;20055;-73
2021/03/23 02:56:34;;;;;;;8.50;6.10;;;;;;;8.20;57.28;101187.19;4997589;28;20054;-73
2021/03/23 02:59:01;;;;;;;9.88;6.60;;;;;;;8.19;56.82;101177.19;4997743;28;20065;-73
2021/03/23 03:01:27;;;;;;;9.70;6.75;;;;;;;8.18;57.56;101175.53;4997650;28;20061;-73
2021/03/23 03:03:54;;;;;;;10.95;7.10;;;;;;;8.18;57.50;101178.31;4997974;28;20050;-73
2021/03/23 03:06:21;;;;;;;10.00;7.40;;;;;;;8.13;56.82;101181.94;4997482;28;20058;-73
2021/03/23 03:08:48;;;;;;;12.30;9.27;;;;;;;8.11;56.63;101173.91;4997456;28;20050;-73
2021/03/23 03:11:15;;;;;;;13.35;8.88;;;;;;;8.03;56.93;101187.50;4996670;28;20061;-73
2021/03/23 03:13:43;;;;;;;14.38;10.32;;;;;;;8.09;56.60;101180.84;4997301;28;20085;-73
2021/03/23 03:16:13;;;;;;;12.15;8.50;;;;;;;8.04;56.69;101187.25;4997513;28;20061;-73
2021/03/23 03:18:39;;;;;;;;;;;;;;;8.04;55.89;101190.00;4997532;28;20062;-73
2021/03/23 03:21:06;;;;;;;12.75;8.88;;;;;;;8.06;56.21;101185.00;4997536;28;19922;-73
2021/03/23 03:23:33;;;;;;;12.93;9.68;;;;;;;8.10;56.80;101183.31;4996696;28;20479;-73
2021/03/23 03:26:00;;;;;;;14.10;10.02;;;;;;;8.12;56.17;101185.81;4997181;28;20481;-73
2021/03/23 03:28:30;;;;;;;16.08;10.43;;;;;;;8.11;55.62;101179.44;4997035;28;20062;-73
2021/03/23 03:30:58;;;;;;;15.27;10.63;;;;;;;8.13;55.85;101177.22;4997428;28;20061;-73
2021/03/23 03:33:28;;;;;;;17.67;12.13;;;;;;;8.15;55.68;101185.28;4997059;28;20058;-73
2021/03/23 03:35:55;;;;;;;17.17;12.40;;;;;;;8.12;56.12;101174.72;4996902;28;20050;-73
2021/03/23 03:38:24;;;;;;;18.80;12.48;;;;;;;8.11;55.97;101176.66;4996960;28;20061;-73
2021/03/23 03:40:55;;;;;;;18.90;13.20;;;;;;;8.12;55.55;101181.09;4996690;28;20062;-73
2021/03/23 03:43:25;;;;;;;20.10;12.95;;;;;;;8.11;56.62;101186.94;4996890;28;20051;-73
2021/03/23 03:45:52;;;;;;;19.83;13.43;;;;;;;8.14;55.43;101183.59;4997342;28;20350;-73
2021/03/23 03:48:20;;;;;;;21.10;13.77;;;;;;;8.17;55.98;101176.66;4996732;28;20070;-74
2021/03/23 03:50:50;;;;;;;21.65;14.80;;;;;;;8.19;55.37;101179.97;4986989;28;20059;-73
2021/03/23 03:53:22;;;;;;;;;;;;;;;8.14;55.55;101167.75;4982787;28;20416;-73
2021/03/23 03:55:49;;;;;;;20.77;14.48;;;;;;;8.12;55.77;101170.00;4996715;28;19929;-73
2021/03/23 03:58:16;;;;;;;19.65;15.00;;;;;;;8.16;55.32;101180.53;4996371;28;20069;-73
2021/03/23 04:00:43;;;;;;;22.05;15.07;;;;;;;8.23;55.36;101176.38;4997637;28;20062;-73
2021/03/23 04:03:16;;;;;;;21.20;14.90;;;;;;;8.26;54.93;101169.41;4996756;28;20054;-73
2021/03/23 04:05:46;;;;;;;23.35;14.93;;;;;;;8.29;55.23;101169.69;4996296;28;20058;-73
2021/03/23 04:08:15;;;;;;;22.00;15.63;;;;;;;8.29;54.82;101166.94;4996391;28;20058;-73
2021/03/23 04:10:42;;;;;;;21.90;15.00;;;;;;;8.27;54.67;101171.06;4995806;28;20496;-74
2021/03/23 04:13:09;;;;;;;22.20;15.00;;;;;;;8.32;55.09;101173.84;4996123;28;20066;-73
2021/03/23 04:15:38;;;;;;;23.63;15.77;;;;;;;8.33;55.12;101178.28;4995924;28;20050;-73
2021/03/23 04:18:10;;;;;;;24.88;16.25;;;;;;;8.34;54.82;101178.00;4996392;28;20519;-73
2021/03/23 04:20:39;;;;;;;22.67;15.57;;;;;;;8.32;55.04;101174.66;4996031;28;20073;-73
2021/03/23 04:23:09;;;;;;;23.92;16.50;;;;;;;8.30;55.08;101176.91;4995784;28;20065;-73
2021/03/23 04:25:36;;;;;;;21.58;15.15;;;;;;;8.33;55.19;101186.59;4995854;28;20058;-73
2021/03/23 04:28:03;;;;;;;24.10;16.65;;;;;;;8.35;55.13;101192.69;4996403;28;20054;-73
2021/03/23 04:30:30;;;;;;;24.20;15.50;;;;;;;8.35;54.31;101195.47;4995612;28;20058;-73
2021/03/23 04:32:58;;;;;;;21.75;15.88;;;;;;;8.39;54.69;101187.44;4995931;28;20069;-73
2021/03/23 04:35:32;;;;;;;22.83;16.98;;;;;;;8.37;54.56;101190.47;4995513;28;20412;-73
2021/03/23 04:37:59;;;;;;;23.10;15.85;;;;;;;8.37;54.93;101193.25;4995396;28;20484;-74
2021/03/23 04:40:27;;;;;;;21.90;15.88;;;;;;;8.40;54.80;101191.84;4976255;28;20066;-74
2021/03/23 04:42:54;;;;;;;22.45;15.77;;;;;;;8.41;55.05;101176.91;4976236;28;20058;-73
2021/03/23 04:45:21;;;;;;;20.70;15.18;;;;;;;8.40;55.18;101181.59;4976033;28;20059;-73
2021/03/23 04:47:48;;;;;;;22.27;15.40;;;;;;;8.41;54.44;101176.91;4975780;28;20057;-73
2021/03/23 04:50:17;;;;;;;22.35;15.25;;;;;;;8.34;54.09;101171.63;4981536;28;20054;-73
2021/03/23 04:52:44;;;;;;;22.52;15.98;;;;;;;8.35;54.29;101176.03;4994830;28;20062;-73
2021/03/23 04:55:13;;;;;;;24.00;16.92;;;;;;;8.27;54.55;101176.63;4994991;28;20058;-73
2021/03/23 04:57:43;;;;;;;22.08;15.43;;;;;;;8.30;54.57;101182.44;4995356;28;20057;-73
2021/03/23 05:00:12;;;;;;;;;;;;;;;8.30;54.72;101188.00;4994667;28;20054;-73
2021/03/23 05:02:38;;;;;;;22.77;14.88;;;;;;;8.29;54.58;101185.50;4994800;28;19922;-73
2021/03/23 05:05:09;;;;;;;23.42;16.15;;;;;;;8.30;54.73;101176.06;4994964;28;20494;-73
2021/03/23 05:07:36;;;;;;;25.55;16.63;;;;;;;8.15;55.10;101168.63;4994787;28;20061;-73
2021/03/23 05:10:04;;;;;;;24.67;17.20;;;;;;;8.19;56.06;101175.28;4994384;28;20464;-73
2021/03/23 05:12:31;;;;;;;26.38;17.10;;;;;;;8.24;56.01;101177.19;4994851;28;20061;-73
2021/03/23 05:14:59;;;;;;;24.25;17.55;;;;;;;8.28;54.70;101179.13;4994639;28;20422;-73
2021/03/23 05:17:26;;;;;;;25.35;17.20;;;;;;;8.33;54.60;101176.31;4994284;28;20059;-73
2021/03/23 05:19:52;;;;;;;24.08;17.20;;;;;;;8.37;55.83;101173.00;4994534;28;20062;-73
2021/03/23 05:22:19;;;;;;;25.77;18.38;;;;;;;8.40;55.58;101181.59;4994339;28;20058;-73
2021/03/23 05:24:46;;;;;;;22.83;17.45;;;;;;;8.40;54.69;101181.59;4994121;28;20076;-73
2021/03/23 05:27:13;;;;;;;23.83;16.88;;;;;;;8.40;55.04;101187.16;4994903;28;20054;-73
2021/03/23 05:29:40;;;;;;;25.95;17.05;;;;;;;8.39;54.71;101179.91;4994688;28;20055;-73
2021/03/23 05:32:09;;;;;;;27.55;16.90;;;;;;;8.39;55.43;101179.91;4994297;28;20488;-73
2021/03/23 05:34:37;;;;;;;28.02;17.27;;;;;;;8.42;56.24;101187.72;4994784;28;20077;-73
2021/03/23 05:37:05;;;;;;;29.40;20.17;;;;;;;8.41;55.47;101183.28;4994968;28;20436;-73
2021/03/23 05:39:32;;;;;;;31.55;20.35;;;;;;;8.44;56.36;101188.28;4994124;28;20058;-73
2021/03/23 05:42:05;;;;;;;30.63;20.77;;;;;;;8.49;55.26;101181.88;4993248;28;20058;-74
2021/03/23 05:45:01;;;;;;;26.08;18.45;;;;;;;8.52;55.36;101193.25;4994229;28;20058;-73
2021/03/23 05:47:34;;;;;;;28.13;17.48;;;;;;;8.57;55.18;101191.53;4983806;28;20062;-73
2021/03/23 05:50:08;;;;;;;26.17;17.80;;;;;;;8.54;54.97;101192.94;4994207;28;20065;-73
2021/03/23 05:52:38;;;;;;;27.58;18.95;;;;;;;8.49;55.50;101191.03;4994307;28;20420;-73
2021/03/23 05:55:18;;;;;;;26.67;18.20;;;;;;;8.51;54.62;101188.81;4993626;28;20385;-73
2021/03/23 05:57:48;;;;;;;23.77;16.42;;;;;;;8.50;55.45;101192.72;4992735;28;20365;-73
2021/03/23 06:00:23;;;;;;;26.45;18.02;;;;;;;8.51;54.95;101194.34;4993860;28;20065;-73
2021/03/23 06:02:58;;;;;;;27.60;18.10;;;;;;;8.51;55.12;101199.91;4993743;28;20420;-73
2021/03/23 06:05:36;;;;;;;27.20;18.23;;;;;;;8.53;55.54;101199.63;4983118;28;20087;-73
2021/03/23 06:08:06;;;;;;;26.80;18.85;;;;;;;8.54;54.59;101198.50;4994484;28;20065;-73
2021/03/23 06:10:33;;;;;;;;;;;;;;;8.57;54.58;101199.88;4993628;28;20054;-73
2021/03/23 06:13:12;;;;;;;28.33;18.20;;;;;;;8.60;54.34;101213.22;4994054;28;19921;-73
2021/03/23 06:15:44;;;;;;;28.10;19.70;;;;;;;8.62;54.82;101211.81;4974940;28;20059;-73
2021/03/23 06:18:20;;;;;;;28.45;18.85;;;;;;;8.64;54.24;101215.13;4993355;28;20069;-73
2021/03/23 06:21:01;;;;;;;27.75;18.60;;;;;;;8.71;54.00;101207.34;4993093;28;20046;-73
2021/03/23 06:24:05;;;;;;;28.38;18.95;;;;;;;8.68;53.96;101215.41;4991664;28;20058;-73
2021/03/23 06:26:46;;;;;;;31.58;19.13;;;;;;;8.76;54.27;101209.25;4988200;28;20050;-73
2021/03/23 06:29:25;;;;;;;26.75;17.85;;;;;;;8.74;53.32;101215.09;4991918;28;20058;-73
2021/03/23 06:32:23;;;;;;;30.02;17.80;;;;;;;8.80;53.88;101221.47;4992619;28;20059;-73
2021/03/23 06:34:58;;;;;;;24.50;16.20;;;;;;;8.77;53.73;101212.88;4990435;28;20050;-73
2021/03/23 06:37:29;;;;;;;26.27;16.42;;;;;;;8.85;53.68;101210.31;4985278;28;20061;-73
2021/03/23 06:39:57;;;;;;;23.42;15.57;;;;;;;8.94;53.24;101222.53;4992759;28;20051;-74
2021/03/23 06:42:33;;;;;;;25.83;16.73;;;;;;;9.04;52.77;101226.34;4994198;28;20492;-74
2021/03/23 06:45:32;;;;;;;24.05;15.70;;;;;;;9.11;53.21;101222.16;4993750;28;20518;-74
2021/03/23 06:48:20;;;;;;;21.42;14.23;;;;;;;9.21;52.50;101229.59;4968131;28;20392;-75
2021/03/23 06:50:49;;;;;;;21.55;14.95;;;;;;;9.32;52.23;101222.88;4994113;28;20053;-75
2021/03/23 06:53:18;;;;;;;23.95;14.27;;;;;;;9.42;51.81;101226.69;4991345;28;20421;-75
2021/03/23 06:55:47;;;;;;;21.38;14.27;;;;;;;9.47;51.49;101215.53;4974644;28;20374;-74
2021/03/23 06:58:27;;;;;;;21.67;13.40;;;;;;;9.55;51.33;101217.69;4989829;28;20062;-74
2021/03/23 07:01:10;;;;;;;19.60;12.50;;;;;;;9.64;51.85;101218.75;4993383;28;20078;-74
2021/03/23 07:03:37;;;;;;;19.85;13.15;;;;;;;9.66;50.94;101224.00;4989051;28;20066;-74
2021/03/23 07:06:18;;;;;;;21.13;12.80;;;;;;;9.66;51.07;101224.88;4992834;28;20478;-74
2021/03/23 07:09:03;;;;;;;17.95;12.80;;;;;;;9.71;51.03;101224.81;4998345;28;20054;-73
2021/03/23 07:11:50;;;;;;;19.25;13.07;;;;;;;9.72;50.34;101223.72;4993898;28;20065;-73
2021/03/23 07:14:29;;;;;;;20.80;13.05;;;;;;;9.73;50.83;101225.34;4980871;28;20055;-75
2021/03/23 07:17:11;;;;;;;20.40;13.18;;;;;;;9.72;50.06;101231.19;4993517;28;20062;-73
2021/03/23 07:19:49;;;;;;;22.02;14.00;;;;;;;9.66;50.70;101236.00;4992953;28;20432;-73
2021/03/23 07:22:20;;;;;;;23.48;14.55;;;;;;;9.61;50.76;101244.34;4992918;28;20054;-77
2021/03/23 07:24:56;;;;;;;18.42;13.52;;;;;;;9.58;51.56;101238.56;4989034;28;20066;-74
2021/03/23 07:27:24;;;;;;;23.05;14.40;;;;;;;9.68;51.41;101244.88;5001848;28;20050;-73
2021/03/23 07:29:51;;;;;;;19.65;14.07;;;;;;;9.66;50.62;101249.03;4981537;28;20046;-73
2021/03/23 07:32:38;;;;;;;21.73;14.10;;;;;;;9.75;51.02;101247.31;4987425;28;20419;-75
2021/03/23 07:35:15;;;;;;;22.60;14.52;;;;;;;9.85;50.40;101250.03;4983260;28;20058;-76
2021/03/23 07:37:52;;;;;;;22.70;14.15;;;;;;;9.80;50.14;101244.50;4986333;28;20085;-76
2021/03/23 07:40:27;;;;;;;19.02;14.18;;;;;;;9.91;49.50;101253.59;4995289;28;20058;-76
2021/03/23 07:43:04;;;;;;;22.40;13.90;;;;;;;9.84;49.99;101250.31;4994191;28;20065;-76
2021/03/23 07:45:45;;;;;;;21.17;13.32;;;;;;;9.85;49.33;101252.81;4996007;28;20419;-73
2021/03/23 07:48:17;;;;;;;21.30;14.52;;;;;;;9.93;49.36;101248.56;4994710;28;20058;-73
2021/03/23 07:50:46;;;;;;;24.45;15.48;;;;;;;10.14;49.08;101255.63;4993737;28;20058;-73
2021/03/23 07:53:18;;;;;;;;;;;;;;;10.41;49.06;101257.06;4994971;28;20054;-73
2021/03/23 07:55:48;;;;;;;18.63;13.27;;;;;;;10.51;48.53;101258.91;4995128;28;20386;-73
2021/03/23 07:58:27;;;;;;;22.88;14.50;;;;;;;10.54;48.89;101264.75;4991247;28;20086;-73
2021/03/23 08:01:41;;;;;;;19.67;13.98;;;;;;;10.52;48.88;101268.91;4989763;28;20063;-73
2021/03/23 08:04:11;;;;;;;22.08;13.77;;;;;;;10.56;48.40;101270.00;4983439;28;20417;-73
2021/03/23 08:06:43;;;;;;;;;;;;;;;10.67;48.25;101260.41;4991625;28;20054;-73
2021/03/23 08:09:35;;;;;;;21.88;13.60;;;;;;;10.68;48.06;101262.06;4992181;28;19922;-73
2021/03/23 08:12:24;;;;;;;22.70;13.85;;;;;;;10.56;47.67;101264.41;4992579;28;20057;-73
2021/03/23 08:15:08;;;;;;;21.45;14.45;;;;;;;10.70;47.61;101264.56;4991269;28;20062;-73
2021/03/23 08:18:11;;;;;;;21.63;14.07;;;;;;;10.85;47.28;101255.19;4988223;28;20499;-73
2021/03/23 08:21:09;;;;;;;20.85;14.27;;;;;;;10.88;47.57;101255.44;4983429;28;20062;-73
2021/03/23 08:23:43;;;;;;;23.40;14.90;;;;;;;11.07;46.79;101251.88;4987046;28;20062;-73
2021/03/23 08:26:23;;;;;;;22.48;14.60;;;;;;;11.39;45.92;101251.13;4992321;28;20058;-73
2021/03/23 08:29:03;;;;;;;24.38;16.25;;;;;;;11.82;45.42;101248.25;4985691;28;20062;-73
2021/03/23 08:31:43;;;;;;;22.77;15.90;;;;;;;12.28;44.75;101235.50;4985829;28;20071;-73
2021/03/23 08:34:25;;;;;;;21.80;15.05;;;;;;;12.85;42.64;101232.44;4986887;28;20050;-73
2021/03/23 08:37:06;;;;;;;23.20;14.88;;;;;;;13.27;41.23;101231.25;4992184;28;20488;-73
2021/03/23 08:39:42;;;;;;;26.55;14.82;;;;;;;13.42;40.17;101232.91;4993677;28;20062;-73
2021/03/23 08:42:16;;;;;;;24.02;15.88;;;;;;;14.07;39.03;101225.16;4993009;28;20054;-73
2021/03/23 08:44:51;;;;;;;29.50;15.27;;;;;;;14.66;38.23;101214.66;4993309;28;20062;-73
2021/03/23 08:47:28;;;;;;;26.05;16.67;;;;;;;15.27;36.99;101213.97;4993940;28;20069;-73
2021/03/23 08:49:59;;;;;;;24.77;15.57;;;;;;;15.51;35.56;101213.50;4982604;28;20058;-73
2021/03/23 08:52:42;;;;;;;30.20;18.50;;;;;;;15.66;35.84;101201.75;4990571;28;20066;-73
2021/03/23 08:55:46;;;;;;;22.80;16.05;;;;;;;15.49;35.71;101218.59;4992026;28;20061;-73
2021/03/23 08:58:18;;;;;;;27.02;17.40;;;;;;;15.66;35.42;101207.38;4990666;28;20063;-73
2021/03/23 09:01:00;;;;;;;22.88;15.60;;;;;;;15.54;35.51;101212.81;4992278;28;20070;-73
2021/03/23 09:03:43;;;;;;;23.52;14.13;;;;;;;16.32;33.70;101211.94;4992404;28;20527;-73
2021/03/23 09:06:12;;;;;;;23.10;14.82;;;;;;;16.35;33.99;101208.44;4978935;28;20069;-74
2021/03/23 09:08:53;;;;;;;26.45;15.93;;;;;;;17.96;32.66;101209.28;4990019;28;20058;-74
2021/03/23 09:11:59;;;;;;;20.48;15.40;;;;;;;19.45;28.62;101211.88;4993313;28;20058;-74
2021/03/23 09:14:30;;;;;;;19.38;14.30;;;;;;;20.21;27.29;101212.03;4993048;28;20411;-73
2021/03/23 09:17:18;;;;;;;20.27;14.63;;;;;;;19.92;27.30;101220.91;4994825;28;20069;-73
2021/03/23 09:19:57;;;;;;;22.15;15.15;;;;;;;18.29;29.93;101210.41;4982005;28;20468;-74
2021/03/23 09:22:39;;;;;;;24.42;15.70;;;;;;;18.08;30.34;101211.31;4993369;28;20507;-74
2021/03/23 09:25:48;;;;;;;19.73;14.60;;;;;;;18.01;30.85;101216.69;4991670;28;20058;-74
2021/03/23 09:28:46;;;;;;;19.75;14.90;;;;;;;17.84;31.06;101212.88;4992506;28;20142;-74
2021/03/23 09:31:19;;;;;;;20.33;14.85;;;;;;;17.64;31.44;101208.06;4985896;28;20515;-75
2021/03/23 09:33:49;;;;;;;21.23;14.73;;;;;;;17.73;31.30;101202.34;4986456;28;20054;-74
2021/03/23 09:36:44;;;;;;;22.98;15.50;;;;;;;18.35;30.99;101197.75;4992756;28;20054;-74
2021/03/23 09:39:47;;;;;;;19.02;15.00;;;;;;;18.71;29.98;101208.28;4991074;28;20412;-74
2021/03/23 09:42:33;;;;;;;21.67;14.50;;;;;;;18.62;29.82;101205.53;4992251;28;20077;-74
2021/03/23 09:45:29;;;;;;;20.25;15.68;;;;;;;18.58;29.40;101204.63;4987823;28;20503;-74
2021/03/23 09:48:05;;;;;;;21.00;15.70;;;;;;;19.17;28.54;101200.50;4993041;28;20054;-74
2021/03/23 09:50:40;;;;;;;21.92;15.73;;;;;;;20.06;28.11;101188.22;4987629;28;20058;-73
2021/03/23 09:53:27;;;;;;;20.90;15.20;;;;;;;20.95;26.18;101186.06;4992629;28;20085;-74
2021/03/23 09:56:01;;;;;;;18.08;14.07;;;;;;;21.63;25.03;101187.63;4985470;28;20470;-73
2021/03/23 09:58:28;;;;;;;21.73;15.30;;;;;;;20.81;26.11;101183.72;4991904;28;20054;-73
2021/03/23 10:01:09;;;;;;;22.08;15.40;;;;;;;21.24;25.76;101179.03;4987540;28;20423;-73
2021/03/23 10:03:39;;;;;;;18.00;14.85;;;;;;;21.45;25.00;101178.72;4978141;28;20062;-73
2021/03/23 10:06:08;;;;;;;23.73;16.25;;;;;;;20.94;25.49;101172.28;4975542;28;20070;-72
2021/03/23 10:08:36;;;;;;;18.80;14.88;;;;;;;20.44;26.00;101188.81;4990643;28;20058;-73
2021/03/23 10:11:08;;;;;;;20.80;15.43;;;;;;;19.47;27.80;101177.59;4989854;28;20073;-72
2021/03/23 10:13:35;;;;;;;24.38;16.05;;;;;;;18.92;28.45;101185.59;4991143;28;20066;-73
2021/03/23 10:16:07;;;;;;;24.48;17.02;;;;;;;18.22;29.90;101185.63;4981951;28;20066;-73
2021/03/23 10:18:40;;;;;;;21.25;15.45;;;;;;;17.38;31.17;101186.53;4990640;28;20058;-73
2021/03/23 10:21:10;;;;;;;21.75;15.55;;;;;;;17.32;31.97;101187.91;4976127;28;20059;-73
2021/03/23 10:23:46;;;;;;;21.55;15.95;;;;;;;17.13;32.16;101177.13;4989934;28;20065;-74
2021/03/23 10:26:13;;;;;;;25.45;17.15;;;;;;;16.93;33.01;101187.19;4988337;28;20054;-72
2021/03/23 10:28:48;;;;;;;21.95;16.65;;;;;;;16.50;33.30;101182.56;4981621;28;20417;-73
2021/03/23 10:31:29;;;;;;;22.65;16.60;;;;;;;16.31;34.19;101184.97;4988931;28;20065;-72
2021/03/23 10:34:05;;;;;;;25.85;17.20;;;;;;;16.17;34.64;101179.56;4977046;28;20050;-72
2021/03/23 10:36:48;;;;;;;24.73;17.27;;;;;;;16.11;34.87;101181.72;4989595;28;20054;-73
2021/03/23 10:39:46;;;;;;;24.50;17.38;;;;;;;16.01;34.74;101182.91;4991255;28;20428;-72
2021/03/23 10:42:20;;;;;;;24.48;17.75;;;;;;;16.18;34.46;101182.03;4979852;28;20054;-73
2021/03/23 10:44:47;;;;;;;27.35;17.75;;;;;;;16.35;34.64;101177.53;4991510;28;20420;-76
2021/03/23 10:47:31;;;;;;;28.90;17.65;;;;;;;16.51;34.38;101181.44;4986720;28;20062;-76
2021/03/23 10:50:18;;;;;;;24.02;16.52;;;;;;;17.14;33.32;101180.78;4991777;28;20503;-73
2021/03/23 10:52:45;;;;;;;25.98;17.67;;;;;;;17.30;32.98;101184.63;4992580;28;20134;-73
2021/03/23 10:55:19;;;;;;;23.77;15.90;;;;;;;17.54;32.25;101183.13;4990691;28;20431;-73
2021/03/23 10:57:46;;;;;;;26.25;17.35;;;;;;;17.45;32.93;101177.56;4994260;28;20169;-74
2021/03/23 11:00:19;;;;;;;25.50;17.23;;;;;;;17.34;33.07;101184.75;4993577;28;20061;-73
2021/03/23 11:02:46;;;;;;;21.95;16.75;;;;;;;17.45;32.93;101172.75;4991805;28;20416;-74
2021/03/23 11:05:16;;;;;;;26.67;17.52;;;;;;;17.23;33.83;101162.66;4989333;28;20057;-74
2021/03/23 11:07:59;;;;;;;29.77;19.35;;;;;;;17.00;33.58;101162.16;4986156;28;20145;-74
2021/03/23 11:10:32;;;;;;;28.33;19.05;;;;;;;16.63;34.93;101169.44;4991881;28;20065;-74
2021/03/23 11:12:59;;;;;;;25.33;17.58;;;;;;;16.58;34.89;101164.84;4985733;28;20061;-74
2021/03/23 11:15:32;;;;;;;24.13;16.40;;;;;;;16.54;34.41;101166.69;4993352;28;20051;-74
2021/03/23 11:18:01;;;;;;;22.35;15.95;;;;;;;16.12;35.18;101160.88;4997245;28;20058;-74
2021/03/23 11:20:34;;;;;;;23.15;15.93;;;;;;;16.30;35.20;101156.03;4992823;28;20062;-75
2021/03/23 11:23:05;;;;;;;22.42;15.63;;;;;;;16.91;34.26;101152.94;4978552;28;20393;-75
2021/03/23 11:25:32;;;;;;;22.20;15.60;;;;;;;17.38;33.55;101154.75;4991446;28;20062;-73
2021/03/23 11:28:02;;;;;;;23.33;16.30;;;;;;;17.94;32.61;101151.63;4978385;28;20051;-74
2021/03/23 11:30:30;;;;;;;22.60;16.40;;;;;;;18.22;31.80;101144.13;4979346;28;20051;-74
2021/03/23 11:32:57;;;;;;;21.40;16.05;;;;;;;19.42;29.79;101147.59;4976278;28;20059;-73
2021/03/23 11:35:24;;;;;;;21.13;15.40;;;;;;;20.95;27.67;101137.91;4976050;28;20062;-73
2021/03/23 11:37:51;;;;;;;21.98;16.00;;;;;;;20.77;27.92;101143.16;4992752;28;20058;-75
2021/03/23 11:40:19;;;;;;;23.73;16.33;;;;;;;20.68;28.12;101142.53;4981467;28;20058;-76
2021/03/23 11:42:49;;;;;;;19.45;15.85;;;;;;;21.62;26.35;101131.28;4994093;28;20065;-76
2021/03/23 11:45:22;;;;;;;22.38;15.70;;;;;;;23.49;23.96;101138.06;4988032;28;20393;-76
2021/03/23 11:47:55;;;;;;;22.17;14.98;;;;;;;24.10;22.77;101133.06;4992535;28;20424;-74
2021/03/23 11:50:25;;;;;;;18.92;15.05;;;;;;;23.39;23.57;101145.25;4992253;28;20050;-76